.
WxDataArchive / Data Records for 2015-08-23
2015-08-22 August 2015 2015-08-24

Data Records for Sunday, 23 August 2015

Time	Temp	Chill	HIndex	Humid	Dewpt	 Wind 	HiWind	WindDir	Rain 	Barom
-----	----	-----	------	-----	-----	------	------	-------	-----	-----
00:00	65.6	65.6	65.6	79	58.9	0	0	---	0.00	30.009 
00:05	65.6	65.6	65.6	78	58.5	0	1	68	0.00	30.009 
00:10	65.6	65.6	65.6	77	58.2	0	0	---	0.00	30.009 
00:15	65.6	65.6	65.6	77	58.2	0	0	---	0.00	30.008 
00:20	65.6	65.6	65.6	77	58.2	0	0	---	0.00	30.008 
00:25	65.6	65.6	65.6	76	57.8	0	1	68	0.00	30.008 
00:30	65.6	65.6	65.6	76	57.8	0	1	68	0.00	30.008 
00:35	65.6	65.6	65.6	76	57.8	0	0	---	0.00	30.008 
00:40	65.6	65.6	65.6	76	57.8	0	0	---	0.00	30.008 
00:45	65.5	65.5	65.5	76	57.7	0	0	---	0.00	30.014 
00:50	65.3	65.3	65.3	77	57.9	0	1	68	0.00	30.014 
00:55	65.2	65.2	65.2	77	57.8	0	0	---	0.00	30.014 
01:00	65.0	65.0	65.0	77	57.6	0	0	---	0.00	30.016 
01:05	64.8	64.8	64.8	78	57.8	0	0	---	0.00	30.016 
01:10	64.7	64.7	64.7	78	57.7	0	0	---	0.00	30.016 
01:15	64.5	64.5	64.5	79	57.8	0	0	---	0.00	30.014 
01:20	64.3	64.3	64.3	79	57.6	0	0	---	0.00	30.014 
01:25	64.2	64.2	64.2	80	57.9	0	0	---	0.00	30.014 
01:30	64.2	64.2	64.2	80	57.9	0	0	---	0.00	30.010 
01:35	64.0	64.0	64.0	80	57.7	0	0	---	0.00	30.010 
01:40	64.0	64.0	64.0	81	58.0	0	0	---	0.00	30.010 
01:45	63.9	63.9	63.9	81	57.9	0	0	---	0.00	30.004 
01:50	63.7	63.7	63.7	81	57.8	0	0	---	0.00	30.004 
01:55	63.5	63.5	63.5	81	57.6	0	0	---	0.00	30.004 
02:00	63.5	63.5	63.5	81	57.6	0	0	---	0.00	29.998 
02:05	63.4	63.4	63.4	81	57.5	0	0	---	0.00	29.998 
02:10	63.2	63.2	63.2	81	57.3	0	0	---	0.00	29.998 
02:15	63.1	63.1	63.1	82	57.5	0	0	---	0.00	29.990 
02:20	62.9	62.9	62.9	82	57.3	0	0	---	0.00	29.990 
02:25	62.7	62.7	62.7	83	57.5	0	0	---	0.00	29.990 
02:30	62.6	62.6	62.6	83	57.4	0	0	---	0.00	29.983 
02:35	62.4	62.4	62.4	83	57.2	0	0	---	0.00	29.983 
02:40	62.3	62.3	62.3	84	57.4	0	0	---	0.00	29.983 
02:45	62.1	62.1	62.1	84	57.2	0	0	---	0.00	29.973 
02:50	62.0	62.0	62.0	84	57.1	0	0	---	0.00	29.973 
02:55	61.6	61.6	61.6	84	56.7	0	0	---	0.00	29.973 
03:00	61.5	61.5	61.5	84	56.6	0	0	---	0.00	29.967 
03:05	61.3	61.3	61.3	85	56.7	0	0	---	0.00	29.967 
03:10	61.2	61.2	61.2	86	57.0	0	0	---	0.00	29.967 
03:15	61.0	61.0	61.0	86	56.8	0	0	---	0.00	29.969 
03:20	61.0	61.0	61.0	86	56.8	0	0	---	0.00	29.969 
03:25	60.9	60.9	60.9	87	57.0	0	0	---	0.00	29.969 
03:30	60.9	60.9	60.9	87	57.0	0	0	---	0.00	29.963 
03:35	60.7	60.7	60.7	87	56.8	0	0	---	0.00	29.963 
03:40	60.7	60.7	60.7	88	57.1	0	0	---	0.00	29.963 
03:45	60.7	60.7	60.7	88	57.1	0	0	---	0.00	29.955 
03:50	60.5	60.5	60.5	88	56.9	0	0	---	0.00	29.955 
03:55	60.5	60.5	60.5	88	56.9	0	0	---	0.00	29.955 
04:00	60.4	60.4	60.4	88	56.8	0	0	---	0.00	29.953 
04:05	60.4	60.4	60.4	88	56.8	0	0	---	0.00	29.953 
04:10	60.2	60.2	60.2	88	56.6	0	0	---	0.00	29.953 
04:15	60.2	60.2	60.2	88	56.6	0	0	---	0.00	29.950 
04:20	60.1	60.1	60.1	88	56.5	0	0	---	0.00	29.950 
04:25	60.1	60.1	60.1	89	56.8	0	0	---	0.00	29.950 
04:30	60.1	60.1	60.1	89	56.8	0	0	---	0.00	29.945 
04:35	59.9	59.9	59.9	89	56.6	0	0	---	0.00	29.945 
04:40	59.9	59.9	59.9	89	56.6	0	0	---	0.00	29.945 
04:45	59.9	59.9	59.9	89	56.6	0	0	---	0.00	29.941 
04:50	59.9	59.9	59.9	90	57.0	0	0	---	0.00	29.941 
04:55	59.9	59.9	59.9	90	57.0	0	0	---	0.00	29.941 
05:00	59.9	59.9	59.9	90	57.0	0	0	---	0.00	29.941 
05:05	59.9	59.9	59.9	90	57.0	0	0	---	0.00	29.941 
05:10	59.9	59.9	59.9	90	57.0	0	0	---	0.00	29.941 
05:15	59.9	59.9	59.9	90	57.0	0	0	---	0.00	29.944 
05:20	59.8	59.8	59.8	90	56.9	0	0	---	0.00	29.944 
05:25	59.6	59.6	59.6	90	56.7	0	0	---	0.00	29.944 
05:30	59.6	59.6	59.6	90	56.7	0	0	---	0.00	29.940 
05:35	59.5	59.5	59.5	90	56.6	0	0	---	0.00	29.940 
05:40	59.5	59.5	59.5	90	56.6	0	0	---	0.00	29.940 
05:45	59.3	59.3	59.3	90	56.4	0	0	---	0.00	29.940 
05:50	59.3	59.3	59.3	90	56.4	0	0	---	0.00	29.940 
05:55	59.3	59.3	59.3	91	56.7	0	0	---	0.00	29.940 
06:00	59.2	59.2	59.2	91	56.6	0	0	---	0.00	29.934 
06:05	59.2	59.2	59.2	91	56.6	0	0	---	0.00	29.934 
06:10	59.2	59.2	59.2	91	56.6	0	0	---	0.00	29.934 
06:15	59.2	59.2	59.2	92	56.9	0	0	---	0.00	29.934 
06:20	59.5	59.5	59.5	92	57.2	0	1	68	0.00	29.934 
06:25	59.6	59.6	59.6	92	57.3	0	0	---	0.00	29.934 
06:30	59.8	59.8	59.8	91	57.2	0	0	---	0.00	29.927 
06:35	59.9	59.9	59.9	91	57.3	0	0	---	0.00	29.927 
06:40	60.1	60.1	60.1	91	57.5	0	0	---	0.00	29.927 
06:45	60.1	60.1	60.1	91	57.5	0	0	---	0.00	29.927 
06:50	60.1	60.1	60.1	91	57.5	0	0	---	0.00	29.927 
06:55	60.1	60.1	60.1	91	57.5	0	0	---	0.00	29.927 
07:00	60.1	60.1	60.1	91	57.5	0	0	---	0.00	29.935 
07:05	60.1	60.1	60.1	90	57.2	0	0	---	0.00	29.935 
07:10	60.2	60.2	60.2	90	57.3	0	0	---	0.00	29.935 
07:15	60.2	60.2	60.2	90	57.3	0	0	---	0.00	29.938 
07:20	60.2	60.2	60.2	90	57.3	0	0	---	0.00	29.938 
07:25	60.4	60.4	60.4	90	57.4	0	0	---	0.00	29.938 
07:30	60.5	60.5	60.5	90	57.5	0	0	---	0.00	29.938 
07:35	60.9	60.9	60.9	90	57.9	0	0	---	0.00	29.938 
07:40	61.0	61.0	61.0	90	58.0	0	0	---	0.00	29.938 
07:45	61.2	61.2	61.2	89	57.9	0	0	---	0.00	29.929 
07:50	61.5	61.5	61.5	89	58.2	0	2	68	0.00	29.929 
07:55	61.5	61.5	61.5	88	57.9	0	2	68	0.00	29.929 
08:00	61.8	61.8	61.8	88	58.2	0	1	68	0.00	29.926 
08:05	62.4	62.4	62.4	87	58.5	0	0	---	0.00	29.926 
08:10	63.1	63.1	63.1	86	58.8	0	0	---	0.00	29.926 
08:15	63.7	63.7	63.7	84	58.8	0	0	---	0.00	29.934 
08:20	64.3	64.3	64.3	83	59.0	0	0	---	0.00	29.934 
08:25	65.0	65.0	65.0	81	59.0	0	0	---	0.00	29.934 
08:30	65.5	65.5	65.5	81	59.5	0	0	---	0.00	29.939 
08:35	66.3	66.3	66.3	78	59.2	0	0	---	0.00	29.939 
08:40	66.6	66.6	66.6	78	59.5	0	0	---	0.00	29.939 
08:45	66.8	66.8	66.8	78	59.7	0	0	---	0.00	29.941 
08:50	66.8	66.8	66.8	78	59.7	0	0	---	0.00	29.941 
08:55	66.8	66.8	66.8	78	59.7	0	0	---	0.00	29.941 
09:00	66.8	66.8	66.8	78	59.7	0	0	---	0.00	29.939 
09:05	66.9	66.9	66.9	78	59.8	0	0	---	0.00	29.939 
09:10	67.1	67.1	67.1	79	60.4	0	0	---	0.00	29.939 
09:15	67.3	67.3	67.3	78	60.2	0	0	---	0.00	29.935 
09:20	67.3	67.3	67.3	78	60.2	0	1	68	0.00	29.935 
09:25	67.4	67.4	67.4	78	60.3	0	1	68	0.00	29.935 
09:30	67.6	67.6	67.6	77	60.1	0	1	68	0.00	29.930 
09:35	67.8	67.8	67.8	76	59.9	0	2	68	0.00	29.930 
09:40	68.3	68.3	68.3	77	60.8	0	0	---	0.00	29.930 
09:45	68.6	68.6	68.6	75	60.3	0	1	68	0.00	29.924 
09:50	69.3	69.3	69.3	73	60.3	0	1	68	0.00	29.924 
09:55	70.1	70.1	70.1	71	60.2	0	2	68	0.00	29.924 
10:00	70.8	70.8	70.8	70	60.5	0	2	68	0.00	29.922 
10:05	71.3	71.3	71.3	69	60.6	0	2	68	0.00	29.922 
10:10	71.6	71.6	71.6	68	60.5	0	2	68	0.00	29.922 
10:15	72.1	72.1	72.1	68	60.9	0	2	68	0.00	29.910 
10:20	72.5	72.5	72.5	68	61.3	0	2	68	0.00	29.910 
10:25	72.8	72.8	72.8	66	60.8	0	3	90	0.00	29.910 
10:30	73.2	73.2	73.2	66	61.1	1	3	90	0.00	29.904 
10:35	73.9	73.9	73.9	64	60.9	0	2	0	0.00	29.904 
10:40	74.4	74.4	74.4	65	61.8	1	3	68	0.00	29.904 
10:45	74.6	74.6	74.6	65	62.0	1	4	90	0.00	29.890 
10:50	75.1	75.1	77.1	65	62.5	0	2	90	0.00	29.890 
10:55	75.6	75.6	77.5	65	63.0	0	1	90	0.00	29.890 
11:00	76.1	76.1	78.0	62	62.1	0	3	90	0.00	29.889 
11:05	76.7	76.7	78.5	62	62.7	1	3	90	0.00	29.889 
11:10	77.4	77.4	79.1	59	61.9	1	3	90	0.00	29.889 
11:15	77.9	77.9	79.5	58	61.9	0	2	270	0.00	29.886 
11:20	78.3	78.3	79.8	57	61.8	0	2	270	0.00	29.886 
11:25	78.5	78.5	80.0	58	62.5	0	4	270	0.00	29.886 
11:30	78.6	78.6	80.1	58	62.6	0	2	68	0.00	29.885 
11:35	79.0	79.0	80.3	55	61.4	1	3	68	0.00	29.885 
11:40	79.6	79.6	81.0	56	62.5	1	3	68	0.00	29.885 
11:45	79.8	79.8	81.2	56	62.7	1	3	68	0.00	29.875 
11:50	79.9	79.9	81.3	56	62.8	1	4	68	0.00	29.875 
11:55	80.1	80.1	81.5	56	63.0	0	3	90	0.00	29.875 
12:00	80.1	80.1	81.6	57	63.5	0	2	90	0.00	29.875 
12:05	80.1	80.1	81.7	58	64.0	0	3	90	0.00	29.875 
12:10	80.3	80.3	81.8	57	63.7	0	2	90	0.00	29.875 
12:15	79.9	79.9	81.4	57	63.3	1	4	90	0.00	29.874 
12:20	79.6	79.6	81.2	58	63.5	0	3	338	0.00	29.874 
12:25	79.8	79.8	81.4	58	63.7	1	3	315	0.00	29.874 
12:30	79.8	79.8	81.5	59	64.2	0	3	292	0.00	29.872 
12:35	79.8	79.8	81.4	58	63.7	1	3	292	0.00	29.872 
12:40	79.8	79.8	81.4	58	63.7	1	5	292	0.00	29.872 
12:45	79.9	79.9	81.7	60	64.7	0	2	292	0.00	29.864 
12:50	80.3	80.3	81.9	58	64.2	0	1	292	0.00	29.864 
12:55	80.7	80.7	82.4	58	64.5	0	2	292	0.00	29.864 
13:00	81.1	81.1	82.9	58	64.9	0	4	292	0.00	29.854 
13:05	81.2	81.2	82.9	57	64.5	0	3	292	0.00	29.854 
13:10	81.2	81.2	82.7	56	64.0	1	3	292	0.00	29.854 
13:15	81.1	81.1	82.6	56	63.9	1	4	270	0.00	29.850 
13:20	81.2	81.2	83.0	58	65.0	0	3	270	0.00	29.850 
13:25	81.6	81.6	83.5	58	65.4	1	4	270	0.00	29.850 
13:30	82.2	82.2	84.3	58	65.9	0	2	22	0.00	29.840 
13:35	82.6	82.6	84.7	57	65.8	1	5	112	0.00	29.840 
13:40	82.6	82.6	84.7	57	65.8	1	6	90	0.00	29.840 
13:45	82.6	82.6	84.5	56	65.3	1	5	112	0.00	29.827 
13:50	82.4	82.4	84.4	57	65.6	2	4	90	0.00	29.827 
13:55	82.4	82.4	84.6	58	66.1	1	4	90	0.00	29.827 
14:00	82.8	82.8	85.2	58	66.5	0	5	68	0.00	29.823 
14:05	83.2	83.2	85.3	56	65.8	1	2	248	0.00	29.823 
14:10	83.4	83.4	85.4	55	65.5	1	2	248	0.00	29.823 
14:15	83.2	83.2	85.3	56	65.8	1	3	248	0.00	29.825 
14:20	83.4	83.4	85.6	56	66.0	1	5	68	0.00	29.825 
14:25	83.2	83.2	85.1	55	65.3	1	5	248	0.00	29.825 
14:30	82.6	82.6	84.3	55	64.8	1	3	270	0.00	29.836 
14:35	82.4	82.4	84.6	58	66.1	1	3	270	0.00	29.836 
14:40	82.4	82.4	84.4	57	65.6	1	7	68	0.00	29.836 
14:45	82.4	82.4	84.6	58	66.1	0	3	68	0.00	29.832 
14:50	82.4	82.4	84.6	58	66.1	1	4	315	0.00	29.832 
14:55	82.4	82.4	84.6	58	66.1	1	3	315	0.00	29.832 
15:00	82.4	82.4	84.8	59	66.6	0	2	22	0.00	29.830 
15:05	83.0	83.0	85.7	59	67.2	1	5	22	0.00	29.830 
15:10	83.2	83.2	85.8	58	66.9	1	4	338	0.00	29.830 
15:15	83.2	83.2	85.8	58	66.9	1	5	90	0.00	29.825 
15:20	82.6	82.6	85.1	59	66.8	1	6	292	0.00	29.825 
15:25	82.4	82.4	85.0	60	67.1	1	4	112	0.00	29.825 
15:30	82.4	82.4	85.0	60	67.1	1	3	112	0.00	29.816 
15:35	82.6	82.6	84.7	57	65.8	1	3	112	0.00	29.816 
15:40	82.2	82.2	84.3	58	65.9	1	5	270	0.00	29.816 
15:45	81.8	81.8	84.0	59	66.0	0	3	315	0.00	29.809 
15:50	81.8	81.8	84.3	61	67.0	1	4	90	0.00	29.809 
15:55	81.8	81.8	84.3	61	67.0	1	4	45	0.00	29.809 
16:00	81.6	81.6	84.0	61	66.8	1	3	68	0.00	29.810 
16:05	81.2	81.2	83.6	62	66.9	0	2	68	0.00	29.810 
16:10	81.1	81.1	83.5	62	66.8	0	3	45	0.00	29.810 
16:15	80.7	80.7	82.8	61	66.0	0	2	315	0.00	29.794 
16:20	80.5	80.5	82.7	62	66.3	0	1	315	0.00	29.794 
16:25	80.3	80.3	82.5	63	66.5	0	4	315	0.00	29.794 
16:30	80.3	80.3	82.5	63	66.5	1	4	315	0.00	29.786 
16:35	80.1	80.1	82.3	63	66.3	1	5	68	0.00	29.786 
16:40	79.9	79.9	82.2	65	67.1	1	5	68	0.00	29.786 
16:45	79.6	79.6	81.9	66	67.2	0	3	90	0.00	29.780 
16:50	78.8	78.8	81.1	69	67.7	1	4	90	0.00	29.780 
16:55	77.9	77.9	79.9	72	68.1	2	5	292	0.00	29.780 
17:00	75.1	75.1	76.0	78	67.8	1	6	315	0.01	29.814 
17:05	73.5	73.5	73.5	82	67.7	1	3	292	0.02	29.814 
17:10	72.5	72.5	72.5	86	68.1	1	2	292	0.05	29.814 
17:15	72.1	72.1	72.1	88	68.3	0	1	292	0.04	29.819 
17:20	72.3	72.3	72.3	89	68.9	0	1	292	0.00	29.819 
17:25	71.8	71.8	71.8	88	68.0	0	1	292	0.00	29.819 
17:30	71.3	71.3	71.3	88	67.6	0	1	292	0.00	29.803 
17:35	70.9	70.9	70.9	88	67.2	0	0	---	0.00	29.803 
17:40	71.1	71.1	71.1	90	68.0	0	1	292	0.00	29.803 
17:45	71.5	71.5	71.5	91	68.7	0	1	292	0.00	29.803 
17:50	71.8	71.8	71.8	91	69.0	0	0	---	0.00	29.803 
17:55	72.1	72.1	72.1	92	69.6	0	1	292	0.00	29.803 
18:00	72.1	72.1	72.1	91	69.3	0	1	292	0.00	29.799 
18:05	72.0	72.0	72.0	92	69.5	0	1	292	0.00	29.799 
18:10	72.1	72.1	72.1	92	69.6	0	1	292	0.01	29.799 
18:15	72.1	72.1	72.1	92	69.6	0	0	---	0.00	29.801 
18:20	72.1	72.1	72.1	92	69.6	0	0	---	0.00	29.801 
18:25	72.1	72.1	72.1	92	69.6	0	0	---	0.04	29.801 
18:30	72.1	72.1	72.1	92	69.6	0	0	---	0.02	29.800 
18:35	72.3	72.3	72.3	92	69.8	0	0	---	0.00	29.800 
18:40	72.3	72.3	72.3	92	69.8	0	1	292	0.00	29.800 
18:45	72.3	72.3	72.3	92	69.8	0	0	---	0.00	29.796 
18:50	72.3	72.3	72.3	92	69.8	0	0	---	0.00	29.796 
18:55	72.3	72.3	72.3	93	70.2	0	0	---	0.00	29.796 
19:00	72.5	72.5	72.5	93	70.4	0	1	292	0.00	29.798 
19:05	72.7	72.7	72.7	93	70.6	0	2	292	0.00	29.798 
19:10	72.8	72.8	72.8	93	70.7	0	2	292	0.00	29.798 
19:15	72.8	72.8	72.8	93	70.7	0	2	292	0.00	29.793 
19:20	73.0	73.0	73.0	93	70.8	1	7	292	0.00	29.793 
19:25	72.5	72.5	72.5	92	70.0	3	9	270	0.00	29.793 
19:30	72.3	72.3	72.3	91	69.5	3	7	270	0.00	29.798 
19:35	72.1	72.1	72.1	89	68.7	2	5	270	0.00	29.798 
19:40	71.8	71.8	71.8	86	67.4	2	6	315	0.00	29.798 
19:45	71.8	71.8	71.8	85	67.0	1	4	315	0.00	29.802 
19:50	71.8	71.8	71.8	83	66.3	1	3	315	0.00	29.802 
19:55	71.5	71.5	71.5	81	65.4	1	5	292	0.00	29.802 
20:00	71.3	71.3	71.3	80	64.8	0	1	292	0.00	29.811 
20:05	70.9	70.9	70.9	81	64.8	0	1	292	0.00	29.811 
20:10	70.6	70.6	70.6	81	64.5	0	1	292	0.00	29.811 
20:15	70.1	70.1	70.1	80	63.6	0	1	292	0.00	29.813 
20:20	69.9	69.9	69.9	80	63.4	0	1	292	0.00	29.813 
20:25	69.6	69.6	69.6	80	63.1	0	1	292	0.00	29.813 
20:30	69.4	69.4	69.4	80	63.0	0	1	292	0.00	29.816 
20:35	69.3	69.3	69.3	81	63.2	0	1	292	0.00	29.816 
20:40	69.1	69.1	69.1	81	63.0	0	1	292	0.00	29.816 
20:45	68.9	68.9	68.9	81	62.8	0	1	292	0.00	29.817 
20:50	68.6	68.6	68.6	82	62.9	0	1	292	0.00	29.817 
20:55	68.6	68.6	68.6	82	62.9	0	1	292	0.00	29.817 
21:00	68.4	68.4	68.4	83	63.0	0	0	---	0.00	29.818 
21:05	68.3	68.3	68.3	83	62.9	0	0	---	0.00	29.818 
21:10	67.9	67.9	67.9	84	62.9	0	0	---	0.00	29.818 
21:15	67.8	67.8	67.8	84	62.8	0	1	292	0.00	29.824 
21:20	67.6	67.6	67.6	83	62.2	0	1	292	0.00	29.824 
21:25	67.4	67.4	67.4	83	62.0	0	1	292	0.00	29.824 
21:30	67.3	67.3	67.3	83	62.0	0	1	292	0.00	29.831 
21:35	67.3	67.3	67.3	83	62.0	0	1	292	0.00	29.831 
21:40	67.1	67.1	67.1	84	62.1	0	0	---	0.00	29.831 
21:45	66.9	66.9	66.9	84	61.9	0	0	---	0.00	29.844 
21:50	66.8	66.8	66.8	85	62.1	0	0	---	0.00	29.844 
21:55	66.6	66.6	66.6	86	62.3	0	0	---	0.00	29.844 
22:00	66.4	66.4	66.4	87	62.4	0	1	292	0.00	29.858 
22:05	66.3	66.3	66.3	87	62.3	0	1	292	0.00	29.858 
22:10	66.3	66.3	66.3	87	62.3	0	2	292	0.00	29.858 
22:15	66.1	66.1	66.1	84	61.1	0	1	292	0.00	29.858 
22:20	66.3	66.3	66.3	81	60.3	0	3	292	0.00	29.858 
22:25	66.3	66.3	66.3	80	59.9	0	1	292	0.00	29.858 
22:30	66.3	66.3	66.3	79	59.6	0	1	292	0.00	29.867 
22:35	66.1	66.1	66.1	78	59.0	0	1	292	0.00	29.867 
22:40	66.0	66.0	66.0	78	58.9	0	2	292	0.00	29.867 
22:45	65.8	65.8	65.8	78	58.7	0	1	292	0.00	29.874 
22:50	65.6	65.6	65.6	78	58.5	0	1	292	0.00	29.874 
22:55	65.5	65.5	65.5	79	58.8	0	1	292	0.00	29.874 
23:00	65.2	65.2	65.2	79	58.5	0	1	292	0.00	29.876 
23:05	65.0	65.0	65.0	80	58.7	0	1	292	0.00	29.876 
23:10	64.8	64.8	64.8	80	58.5	0	0	---	0.00	29.876 
23:15	64.7	64.7	64.7	81	58.7	0	0	---	0.00	29.874 
23:20	64.5	64.5	64.5	81	58.5	0	0	---	0.00	29.874 
23:25	64.3	64.3	64.3	81	58.3	0	0	---	0.00	29.874 
23:30	64.0	64.0	64.0	82	58.4	0	0	---	0.00	29.877 
23:35	63.7	63.7	63.7	83	58.4	0	0	---	0.00	29.877 
23:40	63.5	63.5	63.5	83	58.2	0	0	---	0.00	29.877 
23:45	63.2	63.2	63.2	84	58.3	0	0	---	0.00	29.880 
23:50	63.1	63.1	63.1	84	58.2	0	0	---	0.00	29.880 
23:55	62.7	62.7	62.7	85	58.1	0	0	---	0.00	29.880 

CoCoRaHS
IN-AL-39
A2 Web Hosting
Creative Commons License
GoDaddy
search engine by freefind advanced

loaded 2018-11-16 10:37:10 • last modified 2010-11-18 10:43:29
Privacy PolicyDisclaimer
• wx.awcolley.com is powered by PmWiki v.2002016 •
• all content (unless otherwise noted) © 2018 A W Colley